createdAt,value
2023-06-29T00:02:10.516Z,20.25
2023-06-29T00:04:37.263Z,20.26
2023-06-29T00:07:04.502Z,20.24
2023-06-29T00:09:31.242Z,20.19
2023-06-29T00:11:57.884Z,20.18
2023-06-29T00:14:24.469Z,20.17
2023-06-29T00:16:52.458Z,20.07
2023-06-29T00:19:19.211Z,20.06
2023-06-29T00:21:45.899Z,20.05
2023-06-29T00:24:12.609Z,20.00
2023-06-29T00:26:39.593Z,19.99
2023-06-29T00:29:06.617Z,19.98
2023-06-29T00:31:35.975Z,20.00
2023-06-29T00:34:04.146Z,19.96
2023-06-29T00:36:32.886Z,19.95
2023-06-29T00:39:00.002Z,19.95
2023-06-29T00:41:26.682Z,19.92
2023-06-29T00:43:53.395Z,19.94
2023-06-29T00:46:21.186Z,19.94
2023-06-29T00:48:48.459Z,19.90
2023-06-29T00:51:16.782Z,19.88
2023-06-29T00:53:44.244Z,19.85
2023-06-29T00:56:11.009Z,19.86
2023-06-29T00:58:37.677Z,19.85
2023-06-29T01:01:05.164Z,19.86
2023-06-29T01:03:33.553Z,19.88
2023-06-29T01:06:10.695Z,19.83
2023-06-29T01:08:43.896Z,19.85
2023-06-29T01:11:11.942Z,19.81
2023-06-29T01:13:41.550Z,19.81
2023-06-29T01:16:14.739Z,19.81
2023-06-29T01:18:44.883Z,19.83
2023-06-29T01:21:13.390Z,19.83
2023-06-29T01:23:43.777Z,19.75
2023-06-29T01:26:13.576Z,19.75
2023-06-29T01:28:40.309Z,19.77
2023-06-29T01:31:09.904Z,19.79
2023-06-29T01:33:36.743Z,19.78
2023-06-29T01:36:08.231Z,19.79
2023-06-29T01:38:44.721Z,19.77
2023-06-29T01:41:16.107Z,19.78
2023-06-29T01:43:43.969Z,19.76
2023-06-29T01:46:11.378Z,19.78
2023-06-29T01:48:39.330Z,19.78
2023-06-29T01:51:06.796Z,19.83
2023-06-29T01:53:36.122Z,19.75
2023-06-29T01:56:04.358Z,19.75
2023-06-29T01:58:32.441Z,19.76
2023-06-29T02:00:59.204Z,19.74
2023-06-29T02:03:26.059Z,19.75
2023-06-29T02:05:52.852Z,19.70
2023-06-29T02:08:19.569Z,19.70
2023-06-29T02:10:46.332Z,19.69
2023-06-29T02:13:14.673Z,19.68
2023-06-29T02:15:43.132Z,19.69
2023-06-29T02:18:10.034Z,19.66
2023-06-29T02:20:36.886Z,19.66
2023-06-29T02:23:03.704Z,19.67
2023-06-29T02:25:30.376Z,19.64
2023-06-29T02:27:56.956Z,19.64
2023-06-29T02:30:23.848Z,19.62
2023-06-29T02:32:52.670Z,19.57
2023-06-29T02:35:19.444Z,19.56
2023-06-29T02:37:46.160Z,19.59
2023-06-29T02:40:13.507Z,19.59
2023-06-29T02:42:41.778Z,19.64
2023-06-29T02:45:11.256Z,19.58
2023-06-29T02:47:38.773Z,19.63
2023-06-29T02:50:08.853Z,19.55
2023-06-29T02:52:46.398Z,19.58
2023-06-29T02:55:13.286Z,19.58
2023-06-29T02:57:39.958Z,19.58
2023-06-29T03:00:08.459Z,19.57
2023-06-29T03:02:35.230Z,19.56
2023-06-29T03:05:02.136Z,19.55
2023-06-29T03:07:30.519Z,19.54
2023-06-29T03:09:57.358Z,19.60
2023-06-29T03:12:24.039Z,19.53
2023-06-29T03:14:50.744Z,19.53
2023-06-29T03:17:17.542Z,19.52
2023-06-29T03:19:44.329Z,19.54
2023-06-29T03:22:11.013Z,19.56
2023-06-29T03:24:39.070Z,19.49
2023-06-29T03:27:06.517Z,19.49
2023-06-29T03:29:33.201Z,19.47
2023-06-29T03:32:00.013Z,19.47
2023-06-29T03:34:26.664Z,19.47
2023-06-29T03:36:53.417Z,19.46
2023-06-29T03:39:20.068Z,19.46
2023-06-29T03:41:48.134Z,19.47
2023-06-29T03:44:14.917Z,19.46
2023-06-29T03:46:41.627Z,19.47
2023-06-29T03:49:08.360Z,19.46
2023-06-29T03:51:35.016Z,19.46
2023-06-29T03:54:01.624Z,19.45
2023-06-29T03:56:28.294Z,19.46
2023-06-29T03:58:56.312Z,19.44
2023-06-29T04:01:23.044Z,19.49
2023-06-29T04:03:50.822Z,19.50
2023-06-29T04:06:17.549Z,19.46
2023-06-29T04:08:44.254Z,19.46
2023-06-29T04:11:12.555Z,19.45
2023-06-29T04:13:39.415Z,19.45
2023-06-29T04:16:07.765Z,19.49
2023-06-29T04:18:35.747Z,19.47
2023-06-29T04:21:02.457Z,19.51
2023-06-29T04:23:29.059Z,19.54
2023-06-29T04:25:55.671Z,19.57
2023-06-29T04:28:22.313Z,19.58
2023-06-29T04:30:49.091Z,19.64
2023-06-29T04:33:17.155Z,19.63
2023-06-29T04:35:45.094Z,19.64
2023-06-29T04:38:12.623Z,19.64
2023-06-29T04:40:39.439Z,19.66
2023-06-29T04:43:06.335Z,19.69
2023-06-29T04:45:33.357Z,19.69
2023-06-29T04:48:00.933Z,19.71
2023-06-29T04:50:30.652Z,19.70
2023-06-29T04:52:58.520Z,19.75
2023-06-29T04:55:25.816Z,19.72
2023-06-29T04:57:52.792Z,19.72
2023-06-29T05:00:19.773Z,19.73
2023-06-29T05:02:46.870Z,19.75
2023-06-29T05:05:13.574Z,19.74
2023-06-29T05:07:41.622Z,19.76
2023-06-29T05:10:08.676Z,19.76
2023-06-29T05:12:35.424Z,19.75
2023-06-29T05:15:02.225Z,19.77
2023-06-29T05:17:28.994Z,19.78
2023-06-29T05:19:55.665Z,19.81
2023-06-29T05:22:22.388Z,19.82
2023-06-29T05:24:50.413Z,19.86
2023-06-29T05:27:17.099Z,19.88
2023-06-29T05:29:43.880Z,19.91
2023-06-29T05:32:10.587Z,19.93
2023-06-29T05:34:37.284Z,19.94
2023-06-29T05:37:04.390Z,19.98
2023-06-29T05:39:31.031Z,19.99
2023-06-29T05:41:59.421Z,20.03
2023-06-29T05:44:26.074Z,20.06
2023-06-29T05:46:52.718Z,20.10
2023-06-29T05:49:19.430Z,20.12
2023-06-29T05:51:46.144Z,20.16
2023-06-29T05:54:12.899Z,20.19
2023-06-29T05:56:39.591Z,20.21
2023-06-29T05:59:07.563Z,20.20
2023-06-29T06:01:34.253Z,20.21
2023-06-29T06:04:01.031Z,20.18
2023-06-29T06:06:27.747Z,20.20
2023-06-29T06:08:54.451Z,20.22
2023-06-29T06:11:21.122Z,20.20
2023-06-29T06:13:47.824Z,20.19
2023-06-29T06:16:15.976Z,20.24
2023-06-29T06:18:42.651Z,20.22
2023-06-29T06:21:09.407Z,20.19
2023-06-29T06:23:36.252Z,20.23
2023-06-29T06:26:03.049Z,20.24
2023-06-29T06:28:29.675Z,20.26
2023-06-29T06:30:56.412Z,20.30
2023-06-29T06:33:24.504Z,20.34
2023-06-29T06:35:51.260Z,20.37
2023-06-29T06:38:17.889Z,20.40
2023-06-29T06:40:44.780Z,20.44
2023-06-29T06:43:11.695Z,20.53
2023-06-29T06:45:38.402Z,20.60
2023-06-29T06:48:05.461Z,20.67
2023-06-29T06:50:33.574Z,20.75
2023-06-29T06:53:00.792Z,20.85
2023-06-29T06:55:27.451Z,20.90
2023-06-29T06:57:54.187Z,21.10
2023-06-29T07:00:21.084Z,21.23
2023-06-29T07:02:47.763Z,21.39
2023-06-29T07:05:14.659Z,21.57
2023-06-29T07:07:42.814Z,21.76
2023-06-29T07:10:10.317Z,21.85
2023-06-29T07:12:37.016Z,21.93
2023-06-29T07:15:04.464Z,22.00
2023-06-29T07:17:31.236Z,22.03
2023-06-29T07:24:59.231Z,22.39
2023-06-29T07:27:25.871Z,22.57
2023-06-29T07:29:52.635Z,22.70
2023-06-29T07:32:19.318Z,22.87
2023-06-29T07:34:46.023Z,23.00
2023-06-29T07:37:12.713Z,23.06
2023-06-29T07:39:39.502Z,23.19
2023-06-29T07:42:07.597Z,23.35
2023-06-29T07:44:34.372Z,23.46
2023-06-29T07:47:01.160Z,23.45
2023-06-29T07:49:28.046Z,23.44
2023-06-29T07:51:54.862Z,23.31
2023-06-29T07:54:21.528Z,23.34
2023-06-29T07:59:19.241Z,23.44
2023-06-29T08:01:48.398Z,23.57
2023-06-29T08:04:15.179Z,23.71
2023-06-29T08:06:50.376Z,23.83
2023-06-29T08:09:18.344Z,23.92
2023-06-29T08:11:45.035Z,23.96
2023-06-29T08:14:11.715Z,23.93
2023-06-29T08:16:39.809Z,23.98
2023-06-29T08:19:06.730Z,24.05
2023-06-29T08:21:33.521Z,24.24
2023-06-29T08:24:00.144Z,24.36
2023-06-29T08:26:27.137Z,24.51
2023-06-29T08:28:53.860Z,24.70
2023-06-29T08:31:20.735Z,25.04
2023-06-29T08:33:48.853Z,25.19
2023-06-29T08:36:15.728Z,25.14
2023-06-29T08:38:44.894Z,25.07
2023-06-29T08:41:11.676Z,24.93
2023-06-29T08:43:38.394Z,24.85
2023-06-29T08:46:05.124Z,24.69
2023-06-29T08:48:32.921Z,24.56
2023-06-29T08:51:04.148Z,24.51
2023-06-29T08:53:31.267Z,24.41
2023-06-29T08:55:58.769Z,24.27
2023-06-29T08:58:26.869Z,24.19
2023-06-29T09:00:54.701Z,24.15
2023-06-29T09:03:23.581Z,24.16
2023-06-29T09:05:51.368Z,24.15
2023-06-29T09:08:21.049Z,24.16
2023-06-29T09:10:48.017Z,24.19
2023-06-29T09:13:15.006Z,24.29
2023-06-29T09:15:41.721Z,24.41
2023-06-29T09:18:08.765Z,24.62
2023-06-29T09:20:36.290Z,24.72
2023-06-29T09:23:03.640Z,24.79
2023-06-29T09:25:35.544Z,24.82
2023-06-29T09:28:04.062Z,24.78
2023-06-29T09:30:35.753Z,24.86
2023-06-29T09:33:05.570Z,25.25
2023-06-29T09:35:32.282Z,25.07
2023-06-29T09:38:01.924Z,25.29
2023-06-29T09:40:28.589Z,25.68
2023-06-29T09:42:56.611Z,26.42
2023-06-29T09:45:28.178Z,26.67
2023-06-29T09:50:24.788Z,26.57
2023-06-29T09:52:53.996Z,26.44
2023-06-29T09:55:29.735Z,26.40
2023-06-29T09:57:59.434Z,26.33
2023-06-29T10:00:26.152Z,26.25
2023-06-29T10:02:52.846Z,26.19
2023-06-29T10:05:19.637Z,26.20
2023-06-29T10:07:46.632Z,26.19
2023-06-29T10:10:16.215Z,26.15
2023-06-29T10:12:42.995Z,26.54
2023-06-29T10:15:14.971Z,27.14
2023-06-29T10:17:47.837Z,27.52
2023-06-29T10:20:17.141Z,27.46
2023-06-29T10:22:44.642Z,27.43
2023-06-29T10:25:15.300Z,27.44
2023-06-29T10:27:42.987Z,27.33
2023-06-29T10:30:12.106Z,27.13
2023-06-29T10:32:40.566Z,27.03
2023-06-29T10:35:10.271Z,27.02
2023-06-29T10:37:38.233Z,26.96
2023-06-29T10:40:13.681Z,26.72
2023-06-29T10:42:56.651Z,26.35
2023-06-29T10:45:38.731Z,25.98
2023-06-29T10:48:28.040Z,25.66
2023-06-29T10:51:06.922Z,25.45
2023-06-29T10:53:35.606Z,25.31
2023-06-29T10:56:02.265Z,25.15
2023-06-29T10:58:36.174Z,25.08
2023-06-29T11:01:04.146Z,25.02
2023-06-29T11:03:31.019Z,25.00
2023-06-29T11:05:57.712Z,25.05
2023-06-29T11:08:25.620Z,25.17
2023-06-29T11:10:52.710Z,25.18
2023-06-29T11:13:20.443Z,25.19
2023-06-29T11:15:52.653Z,25.16
2023-06-29T11:18:20.989Z,25.07
2023-06-29T11:20:47.778Z,25.08
2023-06-29T11:23:14.771Z,25.04
2023-06-29T11:25:41.506Z,25.05
2023-06-29T11:28:08.197Z,25.12
2023-06-29T11:30:38.943Z,25.15
2023-06-29T11:33:16.395Z,25.17
2023-06-29T11:35:52.589Z,25.19
2023-06-29T11:38:19.740Z,25.26
2023-06-29T11:40:46.468Z,25.27
2023-06-29T11:43:15.824Z,25.38
2023-06-29T11:45:42.513Z,25.45
2023-06-29T11:48:09.233Z,25.57
2023-06-29T11:50:36.110Z,25.62
2023-06-29T11:53:04.349Z,25.88
2023-06-29T11:55:31.003Z,26.00
2023-06-29T11:57:57.606Z,26.22
2023-06-29T12:00:30.400Z,26.42
2023-06-29T12:02:57.772Z,26.41
2023-06-29T12:05:28.235Z,26.42
2023-06-29T12:07:55.328Z,26.31
2023-06-29T12:10:24.322Z,26.29
2023-06-29T12:12:52.530Z,26.11
2023-06-29T12:15:20.545Z,26.03
2023-06-29T12:20:20.226Z,26.11
2023-06-29T12:22:48.206Z,26.22
2023-06-29T12:25:16.221Z,26.29
2023-06-29T12:27:45.599Z,26.27
2023-06-29T12:30:13.487Z,26.21
2023-06-29T12:32:40.273Z,26.14
2023-06-29T12:35:07.351Z,26.01
2023-06-29T12:37:34.228Z,25.91
2023-06-29T12:40:00.940Z,25.83
2023-06-29T12:42:27.540Z,25.60
2023-06-29T12:44:55.578Z,25.40
2023-06-29T12:47:22.337Z,25.27
2023-06-29T12:49:48.991Z,24.88
2023-06-29T12:52:15.832Z,24.73
2023-06-29T12:54:42.502Z,24.62
2023-06-29T12:57:09.171Z,24.56
2023-06-29T12:59:35.823Z,24.54
2023-06-29T13:02:04.191Z,24.43
2023-06-29T13:04:33.255Z,24.41
2023-06-29T13:07:01.794Z,24.32
2023-06-29T13:09:29.472Z,24.18
2023-06-29T13:11:56.206Z,24.07
2023-06-29T13:14:22.787Z,24.01
2023-06-29T13:16:49.559Z,23.89
2023-06-29T13:19:17.836Z,23.79
2023-06-29T13:21:44.595Z,23.71
2023-06-29T13:24:11.417Z,23.68
2023-06-29T13:26:38.172Z,23.68
2023-06-29T13:29:04.895Z,23.53
2023-06-29T13:31:31.628Z,23.52
2023-06-29T13:33:58.381Z,23.46
2023-06-29T13:36:26.541Z,23.38
2023-06-29T13:38:53.099Z,23.25
2023-06-29T13:41:33.825Z,23.22
2023-06-29T13:44:00.506Z,23.21
2023-06-29T13:46:27.178Z,23.14
2023-06-29T13:48:53.822Z,23.17
2023-06-29T13:51:20.425Z,23.16
2023-06-29T13:53:48.982Z,23.30
2023-06-29T13:56:15.788Z,23.35
2023-06-29T13:58:42.482Z,23.28
2023-06-29T14:01:09.133Z,23.20
2023-06-29T14:03:35.911Z,23.14
2023-06-29T14:06:02.654Z,23.16
2023-06-29T14:08:29.292Z,23.15
2023-06-29T14:10:57.299Z,23.06
2023-06-29T14:13:23.972Z,22.95
2023-06-29T14:15:50.639Z,22.88
2023-06-29T14:18:17.311Z,22.90
2023-06-29T14:20:44.170Z,22.78
2023-06-29T14:23:10.774Z,22.78
2023-06-29T14:25:37.596Z,22.74
2023-06-29T14:28:05.645Z,22.64
2023-06-29T14:30:32.313Z,22.76
2023-06-29T14:32:59.046Z,22.79
2023-06-29T14:35:31.958Z,22.89
2023-06-29T14:38:13.237Z,23.03
2023-06-29T14:40:41.247Z,23.07
2023-06-29T14:43:09.340Z,23.16
2023-06-29T14:45:36.004Z,23.29
2023-06-29T14:48:02.745Z,23.41
2023-06-29T14:50:29.371Z,23.56
2023-06-29T14:52:56.080Z,23.83
2023-06-29T14:55:22.686Z,23.94
2023-06-29T14:57:50.642Z,24.03
2023-06-29T15:00:19.893Z,24.32
2023-06-29T15:02:46.799Z,24.44
2023-06-29T15:05:13.621Z,24.54
2023-06-29T15:07:40.286Z,24.53
2023-06-29T15:10:07.981Z,24.62
2023-06-29T15:12:34.726Z,24.69
2023-06-29T15:15:01.494Z,24.81
2023-06-29T15:17:29.626Z,24.84
2023-06-29T15:19:56.581Z,24.86
2023-06-29T15:22:23.315Z,24.87
2023-06-29T15:24:49.981Z,24.86
2023-06-29T15:27:16.712Z,24.83
2023-06-29T15:29:43.355Z,24.82
2023-06-29T15:32:10.231Z,24.73
2023-06-29T15:34:38.272Z,24.74
2023-06-29T15:37:05.577Z,24.85
2023-06-29T15:39:32.235Z,24.87
2023-06-29T15:41:59.151Z,24.88
2023-06-29T15:44:25.751Z,24.72
2023-06-29T15:46:54.136Z,24.57
2023-06-29T15:49:21.311Z,24.50
2023-06-29T15:51:50.499Z,24.39
2023-06-29T15:54:17.286Z,24.20
2023-06-29T15:56:44.162Z,24.09
2023-06-29T15:59:11.188Z,23.95
2023-06-29T16:01:37.932Z,23.81
2023-06-29T16:04:05.090Z,23.61
2023-06-29T16:06:32.700Z,23.53
2023-06-29T16:09:01.147Z,23.42
2023-06-29T16:11:27.907Z,23.26
2023-06-29T16:13:55.349Z,23.16
2023-06-29T16:16:22.131Z,23.03
2023-06-29T16:18:48.904Z,22.90
2023-06-29T16:21:15.562Z,22.68
2023-06-29T16:23:42.240Z,22.55
2023-06-29T16:26:10.468Z,22.30
2023-06-29T16:28:37.182Z,22.14
2023-06-29T16:31:04.010Z,21.86
2023-06-29T16:33:30.762Z,21.48
2023-06-29T16:35:57.455Z,21.23
2023-06-29T16:38:24.103Z,20.98
2023-06-29T16:40:50.896Z,20.63
2023-06-29T16:43:18.932Z,20.71
2023-06-29T16:45:45.723Z,20.36
2023-06-29T16:48:12.663Z,20.35
2023-06-29T16:50:39.447Z,20.26
2023-06-29T16:53:06.123Z,20.25
2023-06-29T16:55:32.819Z,20.31
2023-06-29T16:57:59.454Z,20.32
2023-06-29T17:00:27.440Z,20.35
2023-06-29T17:02:54.448Z,20.42
2023-06-29T17:05:21.672Z,20.36
2023-06-29T17:07:48.437Z,20.43
2023-06-29T17:10:15.128Z,20.42
2023-06-29T17:12:41.873Z,20.47
2023-06-29T17:15:10.161Z,20.50
2023-06-29T17:17:38.337Z,20.51
2023-06-29T17:20:06.152Z,20.50
2023-06-29T17:22:32.896Z,20.57
2023-06-29T17:24:59.612Z,20.59
2023-06-29T17:27:26.259Z,20.64
2023-06-29T17:29:52.947Z,20.67
2023-06-29T17:32:19.632Z,20.78
2023-06-29T17:34:47.816Z,20.83
2023-06-29T17:37:14.699Z,20.72
2023-06-29T17:39:41.371Z,20.75
2023-06-29T17:42:19.122Z,20.84
2023-06-29T17:44:45.851Z,20.81
2023-06-29T17:47:12.537Z,20.74
2023-06-29T17:49:39.207Z,20.73
2023-06-29T17:52:08.034Z,20.70
2023-06-29T17:54:34.611Z,20.74
2023-06-29T17:57:01.244Z,20.77
2023-06-29T17:59:28.056Z,20.70
2023-06-29T18:01:54.861Z,20.61
2023-06-29T18:04:21.814Z,20.69
2023-06-29T18:06:48.694Z,20.67
2023-06-29T18:09:16.768Z,20.59
2023-06-29T18:11:43.464Z,20.67
2023-06-29T18:14:10.241Z,20.66
2023-06-29T18:16:37.150Z,20.65
2023-06-29T18:19:03.918Z,20.73
2023-06-29T18:21:33.783Z,20.68
2023-06-29T18:24:00.511Z,20.60
2023-06-29T18:26:28.882Z,20.51
2023-06-29T18:28:55.531Z,20.57
2023-06-29T18:31:22.403Z,20.54
2023-06-29T18:33:49.101Z,20.50
2023-06-29T18:36:15.878Z,20.51
2023-06-29T18:38:42.699Z,20.48
2023-06-29T18:41:29.349Z,20.46
2023-06-29T18:43:56.054Z,20.47
2023-06-29T18:46:23.547Z,20.41
2023-06-29T18:48:50.231Z,20.44
2023-06-29T18:51:16.967Z,20.47
2023-06-29T18:53:43.641Z,20.38
2023-06-29T18:56:10.342Z,20.33
2023-06-29T18:58:38.355Z,20.37
2023-06-29T19:01:05.041Z,20.32
2023-06-29T19:03:31.862Z,20.32
2023-06-29T19:05:58.755Z,20.31
2023-06-29T19:08:25.634Z,20.34
2023-06-29T19:10:52.361Z,20.31
2023-06-29T19:13:19.111Z,20.31
2023-06-29T19:15:47.692Z,20.32
2023-06-29T19:18:15.560Z,20.28
2023-06-29T19:20:42.303Z,20.32
2023-06-29T19:23:09.087Z,20.23
2023-06-29T19:25:35.820Z,20.23
2023-06-29T19:28:02.768Z,20.22
2023-06-29T19:30:29.423Z,20.18
2023-06-29T19:32:58.930Z,20.14
2023-06-29T19:35:25.819Z,20.07
2023-06-29T19:37:52.522Z,20.04
2023-06-29T19:40:19.403Z,19.93
2023-06-29T19:42:46.126Z,19.91
2023-06-29T19:45:13.001Z,19.88
2023-06-29T19:47:39.734Z,19.80
2023-06-29T19:50:08.773Z,19.74
2023-06-29T19:52:35.459Z,19.69
2023-06-29T19:55:02.107Z,19.64
2023-06-29T19:57:28.857Z,19.59
2023-06-29T19:59:55.541Z,19.55
2023-06-29T20:02:22.507Z,19.48
2023-06-29T20:04:49.551Z,19.40
2023-06-29T20:07:17.699Z,19.34
2023-06-29T20:09:44.485Z,19.35
2023-06-29T20:12:11.209Z,19.26
2023-06-29T20:14:37.857Z,19.27
2023-06-29T20:17:04.951Z,19.17
2023-06-29T20:19:31.771Z,19.15
2023-06-29T20:21:58.492Z,19.07
2023-06-29T20:24:26.570Z,19.08
2023-06-29T20:26:53.282Z,19.07
2023-06-29T20:29:19.957Z,19.05
2023-06-29T20:31:46.723Z,18.92
2023-06-29T20:34:15.176Z,18.98
2023-06-29T20:36:41.865Z,18.92
2023-06-29T20:39:08.634Z,18.92
2023-06-29T20:41:36.722Z,18.88
2023-06-29T20:44:03.537Z,18.83
2023-06-29T20:46:30.376Z,18.74
2023-06-29T20:48:57.315Z,18.77
2023-06-29T20:51:24.083Z,18.76
2023-06-29T20:53:50.784Z,18.76
2023-06-29T20:56:17.490Z,18.78
2023-06-29T20:58:45.710Z,18.77
2023-06-29T21:03:39.136Z,18.65
2023-06-29T21:06:05.886Z,18.64
2023-06-29T21:08:32.762Z,18.56
2023-06-29T21:10:59.666Z,18.57
2023-06-29T21:13:27.008Z,18.53
2023-06-29T21:15:55.471Z,18.53
2023-06-29T21:18:23.678Z,18.50
2023-06-29T21:20:51.054Z,18.42
2023-06-29T21:23:18.097Z,18.44
2023-06-29T21:25:45.414Z,18.36
2023-06-29T21:28:12.780Z,18.33
2023-06-29T21:30:39.761Z,18.29
2023-06-29T21:33:08.473Z,18.25
2023-06-29T21:35:36.010Z,18.02
2023-06-29T21:38:03.623Z,18.05
2023-06-29T21:40:30.482Z,18.09
2023-06-29T21:42:57.260Z,17.86
2023-06-29T21:45:25.244Z,17.92
2023-06-29T21:47:51.897Z,17.91
2023-06-29T21:50:19.961Z,17.85
2023-06-29T21:52:46.893Z,17.74
2023-06-29T21:55:15.452Z,17.83
2023-06-29T21:57:42.191Z,17.80
2023-06-29T22:00:10.252Z,17.75
2023-06-29T22:02:45.641Z,17.74
2023-06-29T22:05:13.009Z,17.64
2023-06-29T22:07:41.730Z,17.62
2023-06-29T22:10:09.882Z,17.60
2023-06-29T22:12:36.731Z,17.49
2023-06-29T22:15:03.592Z,17.34
2023-06-29T22:17:30.326Z,17.37
2023-06-29T22:20:13.529Z,17.49
2023-06-29T22:22:41.864Z,17.44
2023-06-29T22:25:09.720Z,17.38
2023-06-29T22:27:37.149Z,17.36
2023-06-29T22:30:04.726Z,17.27
2023-06-29T22:32:31.558Z,17.31
2023-06-29T22:34:58.469Z,17.29
2023-06-29T22:37:25.195Z,17.19
2023-06-29T22:39:55.481Z,17.09
2023-06-29T22:42:22.256Z,17.17
2023-06-29T22:44:49.016Z,17.14
2023-06-29T22:47:15.856Z,17.16
2023-06-29T22:49:42.745Z,17.12
2023-06-29T22:52:10.139Z,17.08
2023-06-29T22:54:36.869Z,17.06
2023-06-29T22:57:05.662Z,17.03
2023-06-29T22:59:32.387Z,17.04
2023-06-29T23:01:59.147Z,17.05
2023-06-29T23:04:25.812Z,16.98
2023-06-29T23:06:52.549Z,17.05
2023-06-29T23:09:19.421Z,16.98
2023-06-29T23:11:46.161Z,16.96
2023-06-29T23:14:14.262Z,16.87
2023-06-29T23:16:41.221Z,17.00
2023-06-29T23:19:07.969Z,16.95
2023-06-29T23:21:35.090Z,16.88
2023-06-29T23:24:01.955Z,16.92
2023-06-29T23:26:28.746Z,16.82
2023-06-29T23:28:55.604Z,16.78
2023-06-29T23:31:23.808Z,16.76
2023-06-29T23:33:50.623Z,16.71
2023-06-29T23:36:20.372Z,16.64
2023-06-29T23:38:47.089Z,16.76
2023-06-29T23:41:13.766Z,16.68
2023-06-29T23:43:40.477Z,16.61
2023-06-29T23:46:07.195Z,16.68
2023-06-29T23:48:35.240Z,16.65
2023-06-29T23:51:01.986Z,16.69
2023-06-29T23:53:28.919Z,16.59
2023-06-29T23:55:55.636Z,16.64
2023-06-29T23:58:22.321Z,16.53
